Time;durP1;ratioP1;P1;durP2;ratioP2;P2;SDS_P1;SDS_P2;PMS_P1;PMS_P2;Temp;Humidity;BMP_temperature;BMP_pressure;BME280_temperature;BME280_humidity;BME280_pressure;Samples;Min_cycle;Max_cycle;Signal;HPM_P1;HPM_P2
2020/10/28 00:10:17;;;;;;;1.81;1.71;;;;;;;20.07;58.08;99778.14;;;;-64
2020/10/28 00:13:17;;;;;;;1.70;1.48;;;;;;;20.06;58.07;99775.93;;;;-64
2020/10/28 00:16:17;;;;;;;1.87;1.64;;;;;;;20.05;58.11;99775.38;;;;-64
2020/10/28 00:19:17;;;;;;;1.59;1.48;;;;;;;20.02;58.13;99773.27;;;;-63
2020/10/28 00:22:17;;;;;;;2.03;1.75;;;;;;;20.00;58.19;99774.67;;;;-63
2020/10/28 00:25:17;;;;;;;1.95;1.50;;;;;;;19.97;58.25;99771.67;;;;-64
2020/10/28 00:28:17;;;;;;;1.66;1.56;;;;;;;19.96;58.26;99774.84;;;;-64
2020/10/28 00:31:17;;;;;;;1.68;1.57;;;;;;;19.94;58.29;99783.49;;;;-64
2020/10/28 00:34:17;;;;;;;2.67;1.60;;;;;;;19.92;58.33;99780.56;;;;-63
2020/10/28 00:37:17;;;;;;;1.65;1.50;;;;;;;19.91;58.30;99780.91;;;;-58
2020/10/28 00:40:17;;;;;;;1.81;1.50;;;;;;;19.89;58.38;99780.20;;;;-57
2020/10/28 00:43:17;;;;;;;1.82;1.60;;;;;;;19.87;58.39;99776.13;;;;-57
2020/10/28 00:46:17;;;;;;;1.60;1.50;;;;;;;19.86;58.34;99777.87;;;;-57
2020/10/28 00:49:17;;;;;;;1.70;1.60;;;;;;;19.85;58.38;99777.52;;;;-57
2020/10/28 00:52:17;;;;;;;1.75;1.58;;;;;;;19.83;58.41;99775.59;;;;-57
2020/10/28 00:55:17;;;;;;;1.74;1.57;;;;;;;19.83;58.46;99778.61;;;;-56
2020/10/28 00:58:17;;;;;;;1.56;1.46;;;;;;;19.82;58.46;99774.97;;;;-57
2020/10/28 01:01:17;;;;;;;1.63;1.53;;;;;;;19.80;58.51;99770.58;;;;-57
2020/10/28 01:04:17;;;;;;;1.51;1.40;;;;;;;19.80;58.48;99775.30;;;;-58
2020/10/28 01:07:17;;;;;;;1.71;1.49;;;;;;;19.78;58.48;99772.78;;;;-57
2020/10/28 01:10:17;;;;;;;1.55;1.45;;;;;;;19.77;58.53;99773.91;;;;-57
2020/10/28 01:13:17;;;;;;;1.75;1.60;;;;;;;19.77;58.53;99771.39;;;;-57
2020/10/28 01:16:17;;;;;;;1.57;1.47;;;;;;;19.76;58.56;99770.04;;;;-57
2020/10/28 01:19:17;;;;;;;1.49;1.39;;;;;;;19.75;58.59;99769.12;;;;-57
2020/10/28 01:22:17;;;;;;;2.39;1.50;;;;;;;19.74;58.61;99775.09;;;;-57
2020/10/28 01:25:17;;;;;;;1.54;1.44;;;;;;;19.73;58.59;99773.61;;;;-57
2020/10/28 01:28:17;;;;;;;1.73;1.63;;;;;;;19.73;58.59;99779.30;;;;-57
2020/10/28 01:31:17;;;;;;;1.40;1.30;;;;;;;19.72;58.61;99773.95;;;;-57
2020/10/28 01:34:17;;;;;;;1.58;1.48;;;;;;;19.71;58.66;99775.33;;;;-57
2020/10/28 01:37:17;;;;;;;1.60;1.50;;;;;;;19.70;58.68;99775.64;;;;-57
2020/10/28 01:40:17;;;;;;;1.60;1.50;;;;;;;19.70;58.66;99774.02;;;;-57
2020/10/28 01:43:17;;;;;;;1.60;1.50;;;;;;;19.69;58.65;99771.82;;;;-57
2020/10/28 01:46:17;;;;;;;1.40;1.30;;;;;;;19.68;58.69;99769.88;;;;-57
2020/10/28 01:49:17;;;;;;;1.36;1.26;;;;;;;19.67;58.68;99767.36;;;;-57
2020/10/28 01:52:17;;;;;;;1.50;1.40;;;;;;;19.67;58.78;99766.22;;;;-57
2020/10/28 01:55:17;;;;;;;1.40;1.30;;;;;;;19.66;58.67;99761.12;;;;-57
2020/10/28 01:58:17;;;;;;;1.85;1.43;;;;;;;19.65;58.69;99765.03;;;;-57
2020/10/28 02:01:17;;;;;;;1.41;1.31;;;;;;;19.65;58.73;99762.81;;;;-57
2020/10/28 02:04:17;;;;;;;1.50;1.40;;;;;;;19.63;58.75;99758.22;;;;-57
2020/10/28 02:07:17;;;;;;;1.50;1.40;;;;;;;19.63;58.84;99764.77;;;;-57
2020/10/28 02:10:17;;;;;;;1.58;1.48;;;;;;;19.62;58.78;99765.94;;;;-58
2020/10/28 02:13:17;;;;;;;1.50;1.40;;;;;;;19.62;58.75;99768.30;;;;-58
2020/10/28 02:16:17;;;;;;;1.51;1.41;;;;;;;19.61;58.76;99768.30;;;;-56
2020/10/28 02:19:17;;;;;;;1.48;1.38;;;;;;;19.61;58.85;99764.30;;;;-56
2020/10/28 02:22:17;;;;;;;1.40;1.30;;;;;;;19.60;58.77;99764.48;;;;-57
2020/10/28 02:25:17;;;;;;;1.49;1.39;;;;;;;19.60;58.85;99767.48;;;;-57
2020/10/28 02:28:17;;;;;;;1.49;1.39;;;;;;;19.59;58.81;99762.79;;;;-57
2020/10/28 02:31:17;;;;;;;1.50;1.40;;;;;;;19.59;58.81;99764.00;;;;-57
2020/10/28 02:34:17;;;;;;;1.41;1.31;;;;;;;19.58;58.90;99765.86;;;;-57
2020/10/28 02:37:17;;;;;;;1.35;1.25;;;;;;;19.59;58.79;99766.09;;;;-57
2020/10/28 02:40:17;;;;;;;1.41;1.31;;;;;;;19.58;58.83;99769.28;;;;-57
2020/10/28 02:43:17;;;;;;;1.41;1.31;;;;;;;19.57;58.80;99764.17;;;;-57
2020/10/28 02:46:17;;;;;;;1.50;1.40;;;;;;;19.57;58.83;99761.23;;;;-57
2020/10/28 02:49:17;;;;;;;1.85;1.38;;;;;;;19.56;58.81;99759.05;;;;-58
2020/10/28 02:52:17;;;;;;;1.40;1.30;;;;;;;19.56;58.80;99755.56;;;;-57
2020/10/28 02:55:17;;;;;;;1.53;1.43;;;;;;;19.55;58.83;99758.09;;;;-57
2020/10/28 02:58:17;;;;;;;1.46;1.29;;;;;;;19.55;58.93;99760.59;;;;-57
2020/10/28 03:01:17;;;;;;;1.50;1.40;;;;;;;19.54;58.83;99766.95;;;;-57
2020/10/28 03:04:18;;;;;;;1.40;1.30;;;;;;;19.54;58.89;99770.43;;;;-57
2020/10/28 03:07:17;;;;;;;1.40;1.30;;;;;;;19.54;58.90;99769.88;;;;-57
2020/10/28 03:10:17;;;;;;;1.40;1.30;;;;;;;19.53;58.93;99770.70;;;;-57
2020/10/28 03:13:17;;;;;;;1.46;1.36;;;;;;;19.53;58.85;99771.17;;;;-57
2020/10/28 03:16:17;;;;;;;1.32;1.22;;;;;;;19.52;58.95;99767.67;;;;-57
2020/10/28 03:19:17;;;;;;;1.42;1.32;;;;;;;19.52;58.94;99770.60;;;;-57
2020/10/28 03:22:17;;;;;;;1.41;1.31;;;;;;;19.51;58.96;99772.25;;;;-57
2020/10/28 03:25:17;;;;;;;1.37;1.27;;;;;;;19.51;59.01;99775.26;;;;-57
2020/10/28 03:28:17;;;;;;;1.43;1.33;;;;;;;19.50;59.01;99772.33;;;;-57
2020/10/28 03:31:17;;;;;;;1.40;1.30;;;;;;;19.50;58.95;99775.91;;;;-57
2020/10/28 03:34:17;;;;;;;1.31;1.21;;;;;;;19.49;58.92;99774.45;;;;-57
2020/10/28 03:37:17;;;;;;;1.40;1.30;;;;;;;19.49;59.02;99775.84;;;;-57
2020/10/28 03:40:17;;;;;;;1.49;1.39;;;;;;;19.48;59.02;99772.65;;;;-57
2020/10/28 03:43:17;;;;;;;1.41;1.31;;;;;;;19.48;58.98;99774.11;;;;-57
2020/10/28 03:46:17;;;;;;;1.41;1.31;;;;;;;19.47;59.05;99773.48;;;;-57
2020/10/28 03:49:17;;;;;;;1.42;1.32;;;;;;;19.47;59.06;99782.83;;;;-57
2020/10/28 03:52:17;;;;;;;1.28;1.18;;;;;;;19.47;59.02;99779.00;;;;-57
2020/10/28 03:55:17;;;;;;;1.43;1.30;;;;;;;19.47;59.06;99784.38;;;;-57
2020/10/28 03:58:17;;;;;;;1.22;1.17;;;;;;;19.46;58.98;99789.42;;;;-57
2020/10/28 04:01:17;;;;;;;1.31;1.21;;;;;;;19.46;59.06;99788.27;;;;-57
2020/10/28 04:04:17;;;;;;;1.23;1.16;;;;;;;19.46;59.00;99786.48;;;;-57
2020/10/28 04:07:17;;;;;;;1.47;1.37;;;;;;;19.45;59.04;99792.03;;;;-57
2020/10/28 04:10:17;;;;;;;1.33;1.23;;;;;;;19.44;59.14;99789.33;;;;-57
2020/10/28 04:13:17;;;;;;;1.30;1.20;;;;;;;19.44;59.11;99789.17;;;;-56
2020/10/28 04:16:17;;;;;;;1.28;1.18;;;;;;;19.45;59.05;99791.05;;;;-57
2020/10/28 04:19:17;;;;;;;1.38;1.28;;;;;;;19.43;59.13;99795.60;;;;-57
2020/10/28 04:22:17;;;;;;;1.20;1.16;;;;;;;19.44;59.09;99789.50;;;;-57
2020/10/28 04:25:17;;;;;;;1.38;1.28;;;;;;;19.43;59.10;99795.45;;;;-57
2020/10/28 04:28:17;;;;;;;1.30;1.20;;;;;;;19.43;59.13;99797.00;;;;-56
2020/10/28 04:31:17;;;;;;;1.39;1.29;;;;;;;19.42;59.15;99799.50;;;;-56
2020/10/28 04:34:17;;;;;;;1.27;1.19;;;;;;;19.42;59.19;99795.52;;;;-57
2020/10/28 04:37:17;;;;;;;1.20;1.20;;;;;;;19.42;59.15;99793.73;;;;-56
2020/10/28 04:40:17;;;;;;;1.28;1.18;;;;;;;19.42;59.13;99793.97;;;;-57
2020/10/28 04:43:17;;;;;;;1.30;1.20;;;;;;;19.41;59.21;99794.56;;;;-57
2020/10/28 04:46:17;;;;;;;1.40;1.30;;;;;;;19.41;59.15;99795.37;;;;-56
2020/10/28 04:49:17;;;;;;;1.40;1.30;;;;;;;19.40;59.20;99793.84;;;;-57
2020/10/28 04:52:17;;;;;;;1.69;1.27;;;;;;;19.42;59.29;99800.47;;;;-67
2020/10/28 04:55:17;;;;;;;1.88;1.25;;;;;;;19.40;59.22;99799.67;;;;-67
2020/10/28 04:58:17;;;;;;;2.79;1.33;;;;;;;19.40;59.24;99798.77;;;;-65
2020/10/28 05:01:17;;;;;;;1.31;1.20;;;;;;;19.39;59.23;99800.73;;;;-65
2020/10/28 05:04:17;;;;;;;1.38;1.28;;;;;;;19.38;59.25;99805.55;;;;-55
2020/10/28 05:07:17;;;;;;;1.65;1.25;;;;;;;19.38;59.25;99805.61;;;;-57
2020/10/28 05:10:17;;;;;;;1.47;1.22;;;;;;;19.37;59.23;99806.19;;;;-56
2020/10/28 05:13:17;;;;;;;1.20;1.10;;;;;;;19.37;59.23;99806.19;;;;-57
2020/10/28 05:16:17;;;;;;;1.69;1.19;;;;;;;19.37;59.33;99807.01;;;;-57
2020/10/28 05:19:17;;;;;;;1.61;1.30;;;;;;;19.36;59.32;99812.45;;;;-56
2020/10/28 05:22:17;;;;;;;2.25;1.29;;;;;;;19.35;59.36;99815.37;;;;-57
2020/10/28 05:25:17;;;;;;;1.20;1.12;;;;;;;19.36;59.29;99810.90;;;;-56
2020/10/28 05:28:17;;;;;;;1.11;1.10;;;;;;;19.35;59.30;99811.80;;;;-56
2020/10/28 05:31:17;;;;;;;1.35;1.20;;;;;;;19.35;59.32;99810.50;;;;-57
2020/10/28 05:34:17;;;;;;;1.03;1.03;;;;;;;19.34;59.31;99808.56;;;;-56
2020/10/28 05:37:17;;;;;;;1.67;1.19;;;;;;;19.35;59.33;99806.86;;;;-56
2020/10/28 05:40:17;;;;;;;1.30;1.20;;;;;;;19.35;59.33;99807.02;;;;-57
2020/10/28 05:43:17;;;;;;;1.30;1.20;;;;;;;19.35;59.33;99812.54;;;;-56
2020/10/28 05:46:17;;;;;;;1.10;1.10;;;;;;;19.34;59.33;99810.01;;;;-57
2020/10/28 05:49:17;;;;;;;1.30;1.20;;;;;;;19.34;59.37;99811.58;;;;-56
2020/10/28 05:52:17;;;;;;;1.01;1.01;;;;;;;19.33;59.32;99812.29;;;;-57
2020/10/28 05:55:17;;;;;;;1.10;1.10;;;;;;;19.32;59.34;99812.63;;;;-57
2020/10/28 05:58:17;;;;;;;1.17;1.11;;;;;;;19.33;59.34;99815.88;;;;-57
2020/10/28 06:01:17;;;;;;;1.30;1.20;;;;;;;19.32;59.41;99818.89;;;;-56
2020/10/28 06:04:17;;;;;;;1.12;1.11;;;;;;;19.32;59.42;99824.88;;;;-55
2020/10/28 06:07:17;;;;;;;1.25;1.15;;;;;;;19.31;59.34;99830.17;;;;-57
2020/10/28 06:10:17;;;;;;;1.27;1.19;;;;;;;19.31;59.38;99831.56;;;;-56
2020/10/28 06:13:17;;;;;;;1.29;1.19;;;;;;;19.30;59.34;99832.06;;;;-56
2020/10/28 06:16:17;;;;;;;1.27;1.20;;;;;;;19.29;59.39;99831.71;;;;-56
2020/10/28 06:19:17;;;;;;;1.10;1.10;;;;;;;19.29;59.35;99835.78;;;;-57
2020/10/28 06:22:17;;;;;;;1.33;1.23;;;;;;;19.29;59.39;99849.59;;;;-57
2020/10/28 06:25:17;;;;;;;1.17;1.10;;;;;;;19.29;59.38;99849.76;;;;-57
2020/10/28 06:28:17;;;;;;;1.21;1.15;;;;;;;19.29;59.40;99853.42;;;;-56
2020/10/28 06:31:17;;;;;;;1.30;1.20;;;;;;;19.28;59.40;99858.63;;;;-56
2020/10/28 06:34:17;;;;;;;1.23;1.13;;;;;;;19.28;59.36;99859.52;;;;-56
2020/10/28 06:37:17;;;;;;;1.20;1.20;;;;;;;19.28;59.38;99865.77;;;;-56
2020/10/28 06:40:17;;;;;;;1.12;1.12;;;;;;;19.27;59.42;99871.13;;;;-55
2020/10/28 06:43:17;;;;;;;1.15;1.03;;;;;;;19.27;59.41;99877.30;;;;-56
2020/10/28 06:46:17;;;;;;;1.00;1.00;;;;;;;19.27;59.47;99885.34;;;;-57
2020/10/28 06:49:17;;;;;;;1.27;1.19;;;;;;;19.27;59.50;99888.36;;;;-57
2020/10/28 06:52:17;;;;;;;1.10;1.10;;;;;;;19.27;59.47;99891.67;;;;-57
2020/10/28 06:55:17;;;;;;;1.11;1.05;;;;;;;19.26;59.45;99896.73;;;;-57
2020/10/28 06:58:17;;;;;;;1.15;1.10;;;;;;;19.26;59.47;99909.00;;;;-57
2020/10/28 07:01:17;;;;;;;1.11;1.10;;;;;;;19.25;59.50;99912.15;;;;-57
2020/10/28 07:04:17;;;;;;;1.00;1.00;;;;;;;19.25;59.49;99913.28;;;;-56
2020/10/28 07:07:17;;;;;;;1.27;1.17;;;;;;;19.26;59.53;99916.72;;;;-55
2020/10/28 07:10:19;;;;;;;1.14;1.07;;;;;;;19.26;59.50;99926.03;;;;-55
2020/10/28 07:13:17;;;;;;;1.08;1.08;;;;;;;19.26;59.50;99931.39;;;;-56
2020/10/28 07:16:17;;;;;;;1.13;1.10;;;;;;;19.25;59.48;99939.29;;;;-54
2020/10/28 07:19:17;;;;;;;1.20;1.10;;;;;;;19.24;59.54;99942.14;;;;-57
2020/10/28 07:22:17;;;;;;;1.00;1.00;;;;;;;19.24;59.52;99951.64;;;;-57
2020/10/28 07:25:17;;;;;;;1.12;1.07;;;;;;;19.25;59.57;99958.05;;;;-55
2020/10/28 07:28:17;;;;;;;1.12;1.09;;;;;;;19.24;59.51;99963.98;;;;-57
2020/10/28 07:31:17;;;;;;;1.29;1.19;;;;;;;19.24;59.54;99966.91;;;;-57
2020/10/28 07:34:17;;;;;;;1.23;1.13;;;;;;;19.23;59.55;99973.56;;;;-57
2020/10/28 07:37:17;;;;;;;1.61;1.00;;;;;;;19.23;59.60;99972.42;;;;-56
2020/10/28 07:40:17;;;;;;;1.01;1.01;;;;;;;19.24;59.56;99978.13;;;;-56
2020/10/28 07:43:17;;;;;;;1.10;1.00;;;;;;;19.24;59.52;99983.73;;;;-55
2020/10/28 07:46:18;;;;;;;0.93;0.93;;;;;;;19.24;59.55;99983.01;;;;-57
2020/10/28 07:49:17;;;;;;;1.00;1.00;;;;;;;19.23;59.53;99985.67;;;;-54
2020/10/28 07:52:17;;;;;;;1.10;1.10;;;;;;;19.23;59.56;99983.48;;;;-56
2020/10/28 07:55:17;;;;;;;0.95;0.95;;;;;;;19.23;59.58;99980.14;;;;-66
2020/10/28 07:58:17;;;;;;;1.11;1.07;;;;;;;19.23;59.56;99982.43;;;;-66
2020/10/28 08:01:17;;;;;;;1.71;1.11;;;;;;;19.22;59.63;99984.14;;;;-65
2020/10/28 08:04:17;;;;;;;1.22;1.12;;;;;;;19.23;59.54;99989.09;;;;-66
2020/10/28 08:07:17;;;;;;;1.13;1.10;;;;;;;19.22;59.56;99999.25;;;;-66
2020/10/28 08:10:17;;;;;;;1.21;1.11;;;;;;;19.22;59.62;100002.34;;;;-66
2020/10/28 08:13:17;;;;;;;1.09;1.09;;;;;;;19.22;59.64;100007.47;;;;-60
2020/10/28 08:16:17;;;;;;;3.76;1.13;;;;;;;19.25;59.64;100012.23;;;;-62
2020/10/28 08:19:17;;;;;;;1.23;1.09;;;;;;;19.29;59.76;100014.44;;;;-60
2020/10/28 08:22:17;;;;;;;1.37;1.01;;;;;;;19.33;59.91;100016.80;;;;-60
2020/10/28 08:25:17;;;;;;;2.00;1.20;;;;;;;19.36;60.00;100013.30;;;;-60
2020/10/28 08:28:17;;;;;;;1.41;1.12;;;;;;;19.40;60.08;100010.36;;;;-59
2020/10/28 08:31:17;;;;;;;2.19;1.12;;;;;;;19.44;60.13;100015.50;;;;-60
2020/10/28 08:34:17;;;;;;;4.20;1.20;;;;;;;19.48;60.08;100021.56;;;;-59
2020/10/28 08:40:22;;;;;;;9.48;1.91;;;;;;;19.59;60.02;100022.12;;;;-52
2020/10/28 08:43:52;;;;;;;6.41;1.62;;;;;;;19.64;60.37;100036.52;;;;-51
2020/10/28 08:46:18;;;;;;;3.31;1.49;;;;;;;19.69;59.67;100040.16;;;;-52
2020/10/28 08:49:17;;;;;;;4.73;1.47;;;;;;;19.75;60.25;100048.72;;;;-60
2020/10/28 08:52:17;;;;;;;5.29;1.69;;;;;;;19.78;59.90;100050.02;;;;-60
2020/10/28 08:55:17;;;;;;;4.23;1.46;;;;;;;19.82;59.81;100053.77;;;;-60
2020/10/28 08:58:17;;;;;;;2.79;1.43;;;;;;;19.85;59.78;100052.05;;;;-60
2020/10/28 09:01:17;;;;;;;1.45;1.25;;;;;;;19.87;59.70;100044.97;;;;-60
2020/10/28 09:04:17;;;;;;;2.55;1.41;;;;;;;19.89;59.68;100048.28;;;;-61
2020/10/28 09:07:17;;;;;;;1.42;1.27;;;;;;;19.95;60.16;100067.65;;;;-51
2020/10/28 09:10:17;;;;;;;2.67;1.55;;;;;;;19.96;59.80;100074.54;;;;-58
2020/10/28 09:13:17;;;;;;;3.69;1.49;;;;;;;19.96;59.68;100074.62;;;;-53
2020/10/28 09:16:17;;;;;;;1.95;1.50;;;;;;;19.98;59.83;100081.94;;;;-50
2020/10/28 09:19:17;;;;;;;2.23;1.50;;;;;;;20.00;59.71;100082.91;;;;-52
2020/10/28 09:22:17;;;;;;;1.63;1.50;;;;;;;20.02;59.85;100085.19;;;;-60
2020/10/28 09:25:17;;;;;;;2.96;1.57;;;;;;;20.04;59.80;100079.91;;;;-56
2020/10/28 09:28:17;;;;;;;2.65;1.40;;;;;;;20.06;60.05;100087.70;;;;-57
2020/10/28 09:31:17;;;;;;;2.85;1.57;;;;;;;20.08;59.88;100083.71;;;;-60
2020/10/28 09:34:17;;;;;;;2.91;1.62;;;;;;;20.10;59.84;100082.33;;;;-60
2020/10/28 09:37:17;;;;;;;4.33;1.89;;;;;;;20.13;60.04;100084.59;;;;-52
2020/10/28 09:40:17;;;;;;;2.32;1.73;;;;;;;20.15;59.93;100086.95;;;;-53
2020/10/28 09:43:17;;;;;;;2.93;1.58;;;;;;;20.16;60.04;100093.70;;;;-54
2020/10/28 09:46:17;;;;;;;6.35;1.65;;;;;;;20.17;59.77;100092.33;;;;-54
2020/10/28 09:49:17;;;;;;;2.26;1.41;;;;;;;20.18;59.82;100098.98;;;;-54
2020/10/28 09:52:17;;;;;;;3.27;1.46;;;;;;;20.19;59.67;100099.89;;;;-53
2020/10/28 09:55:17;;;;;;;2.22;1.55;;;;;;;20.21;59.84;100103.85;;;;-54
2020/10/28 09:58:17;;;;;;;4.39;1.55;;;;;;;20.23;59.71;100104.58;;;;-53
2020/10/28 10:01:17;;;;;;;2.20;1.49;;;;;;;20.23;59.52;100096.77;;;;-58
2020/10/28 10:04:17;;;;;;;3.73;1.63;;;;;;;20.25;59.52;100097.26;;;;-57
2020/10/28 10:07:17;;;;;;;3.03;1.76;;;;;;;20.26;59.75;100095.80;;;;-58
2020/10/28 10:10:17;;;;;;;3.81;1.56;;;;;;;20.29;59.61;100086.34;;;;-58
2020/10/28 10:13:17;;;;;;;1.82;1.52;;;;;;;20.30;59.45;100083.34;;;;-57
2020/10/28 10:16:17;;;;;;;1.73;1.51;;;;;;;20.32;59.52;100090.17;;;;-61
2020/10/28 10:19:17;;;;;;;2.17;1.69;;;;;;;20.33;59.45;100097.89;;;;-62
2020/10/28 10:22:17;;;;;;;2.57;1.52;;;;;;;20.34;59.33;100089.84;;;;-63
2020/10/28 10:25:17;;;;;;;1.82;1.43;;;;;;;20.35;59.36;100095.67;;;;-61
2020/10/28 10:28:17;;;;;;;2.01;1.47;;;;;;;20.36;59.29;100097.78;;;;-62
2020/10/28 10:31:17;;;;;;;2.51;1.39;;;;;;;20.37;59.27;100098.69;;;;-61
2020/10/28 10:34:17;;;;;;;2.35;1.50;;;;;;;20.37;59.24;100097.86;;;;-53
2020/10/28 10:37:17;;;;;;;1.99;1.33;;;;;;;20.38;59.29;100100.89;;;;-54
2020/10/28 10:40:17;;;;;;;1.67;1.41;;;;;;;20.39;59.22;100094.05;;;;-52
2020/10/28 10:46:17;;;;;;;2.56;1.26;;;;;;;20.40;59.47;100103.25;;;;-58
2020/10/28 10:49:17;;;;;;;2.49;1.47;;;;;;;20.41;59.41;100102.67;;;;-59
2020/10/28 10:52:17;;;;;;;5.31;1.47;;;;;;;20.43;59.37;100100.30;;;;-58
2020/10/28 10:55:17;;;;;;;3.19;1.38;;;;;;;20.44;59.28;100097.76;;;;-59
2020/10/28 10:58:17;;;;;;;2.52;1.44;;;;;;;20.44;59.25;100097.86;;;;-59
2020/10/28 11:01:17;;;;;;;2.29;1.36;;;;;;;20.44;59.16;100088.64;;;;-58
2020/10/28 11:04:17;;;;;;;1.40;1.30;;;;;;;20.45;59.11;100082.95;;;;-59
2020/10/28 11:07:17;;;;;;;1.79;1.38;;;;;;;20.46;59.21;100087.44;;;;-60
2020/10/28 11:10:17;;;;;;;1.79;1.27;;;;;;;20.47;59.16;100093.77;;;;-60
2020/10/28 11:13:17;;;;;;;3.31;1.39;;;;;;;20.47;59.13;100085.06;;;;-59
2020/10/28 11:16:17;;;;;;;8.09;1.71;;;;;;;20.47;59.25;100094.83;;;;-56
2020/10/28 11:19:17;;;;;;;4.62;1.25;;;;;;;20.47;59.15;100091.89;;;;-57
2020/10/28 11:22:17;;;;;;;2.43;1.33;;;;;;;20.47;59.28;100096.45;;;;-58
2020/10/28 11:25:17;;;;;;;2.67;1.33;;;;;;;20.48;59.09;100098.72;;;;-58
2020/10/28 11:28:17;;;;;;;1.50;1.30;;;;;;;20.48;59.18;100098.56;;;;-60
2020/10/28 11:31:18;;;;;;;1.25;1.20;;;;;;;20.49;59.21;100098.66;;;;-62
2020/10/28 11:34:17;;;;;;;1.81;1.37;;;;;;;20.49;59.34;100088.31;;;;-59
2020/10/28 11:37:17;;;;;;;2.77;1.30;;;;;;;20.50;59.11;100086.91;;;;-57
2020/10/28 11:40:17;;;;;;;5.81;1.43;;;;;;;20.53;59.34;100092.38;;;;-50
2020/10/28 11:43:17;;;;;;;6.50;1.57;;;;;;;20.56;59.58;100099.43;;;;-50
2020/10/28 11:46:17;;;;;;;2.45;1.20;;;;;;;20.58;59.59;100101.07;;;;-53
2020/10/28 11:49:17;;;;;;;6.44;1.37;;;;;;;20.59;59.69;100093.84;;;;-57
2020/10/28 11:52:17;;;;;;;4.51;1.39;;;;;;;20.63;59.83;100103.17;;;;-64
2020/10/28 11:55:17;;;;;;;1.77;1.29;;;;;;;20.66;59.65;100106.59;;;;-59
2020/10/28 11:58:17;;;;;;;3.11;1.30;;;;;;;20.67;59.74;100110.17;;;;-60
2020/10/28 12:01:17;;;;;;;2.25;1.31;;;;;;;20.70;59.47;100110.07;;;;-57
2020/10/28 12:04:17;;;;;;;2.50;1.30;;;;;;;20.72;59.45;100114.71;;;;-67
2020/10/28 12:07:17;;;;;;;1.73;1.29;;;;;;;20.72;59.05;100111.22;;;;-65
2020/10/28 12:10:17;;;;;;;1.89;1.27;;;;;;;20.71;58.94;100107.06;;;;-60
2020/10/28 12:13:17;;;;;;;1.97;1.32;;;;;;;20.71;58.85;100107.45;;;;-60
2020/10/28 12:16:17;;;;;;;2.87;1.31;;;;;;;20.71;58.63;100103.64;;;;-61
2020/10/28 12:19:17;;;;;;;1.87;1.27;;;;;;;20.71;58.51;100101.27;;;;-64
2020/10/28 12:22:17;;;;;;;2.39;1.30;;;;;;;20.70;58.53;100100.38;;;;-64
2020/10/28 12:25:17;;;;;;;1.75;1.20;;;;;;;20.70;58.57;100094.35;;;;-65
2020/10/28 12:28:17;;;;;;;1.21;1.10;;;;;;;20.70;58.40;100100.95;;;;-64
2020/10/28 12:31:17;;;;;;;2.47;1.25;;;;;;;20.69;58.39;100102.02;;;;-65
2020/10/28 12:34:17;;;;;;;1.15;1.07;;;;;;;20.70;58.30;100104.77;;;;-65
2020/10/28 12:37:17;;;;;;;1.90;1.21;;;;;;;20.69;58.29;100095.75;;;;-60
2020/10/28 12:40:17;;;;;;;1.67;1.27;;;;;;;20.69;58.36;100095.59;;;;-61
2020/10/28 12:43:17;;;;;;;1.77;1.20;;;;;;;20.69;58.08;100097.55;;;;-60
2020/10/28 12:46:20;;;;;;;2.56;1.31;;;;;;;20.68;58.45;100103.24;;;;-49
2020/10/28 12:50:17;;;;;;;3.76;1.30;;;;;;;20.69;58.46;100108.62;;;;-62
2020/10/28 12:53:17;;;;;;;1.91;1.23;;;;;;;20.71;58.53;100112.67;;;;-62
2020/10/28 12:56:17;;;;;;;2.71;1.20;;;;;;;20.72;58.47;100113.17;;;;-58
2020/10/28 12:59:17;;;;;;;1.51;1.13;;;;;;;20.72;58.52;100116.91;;;;-63
2020/10/28 13:02:17;;;;;;;3.00;1.14;;;;;;;20.72;58.57;100121.22;;;;-64
2020/10/28 13:05:17;;;;;;;1.36;1.26;;;;;;;20.72;58.58;100117.14;;;;-64
2020/10/28 13:08:17;;;;;;;1.40;1.30;;;;;;;20.72;58.56;100121.14;;;;-64
2020/10/28 13:11:17;;;;;;;1.22;1.12;;;;;;;20.73;58.55;100124.00;;;;-63
2020/10/28 13:14:17;;;;;;;2.15;1.30;;;;;;;20.73;58.57;100121.72;;;;-64
2020/10/28 13:17:17;;;;;;;1.37;1.27;;;;;;;20.73;58.54;100127.99;;;;-64
2020/10/28 13:20:17;;;;;;;1.65;1.19;;;;;;;20.73;58.55;100126.44;;;;-63
2020/10/28 13:23:17;;;;;;;1.83;1.03;;;;;;;20.73;58.55;100122.20;;;;-64
2020/10/28 13:26:17;;;;;;;1.23;1.13;;;;;;;20.74;58.54;100120.16;;;;-63
2020/10/28 13:29:17;;;;;;;1.89;1.16;;;;;;;20.74;58.55;100118.20;;;;-63
2020/10/28 13:32:17;;;;;;;1.35;1.20;;;;;;;20.73;58.60;100121.39;;;;-63
2020/10/28 13:35:17;;;;;;;1.99;1.17;;;;;;;20.74;58.58;100122.45;;;;-64
2020/10/28 13:38:17;;;;;;;1.57;1.20;;;;;;;20.74;58.57;100119.25;;;;-64
2020/10/28 13:41:17;;;;;;;2.08;1.19;;;;;;;20.74;58.57;100120.39;;;;-63
2020/10/28 13:44:17;;;;;;;2.35;1.14;;;;;;;20.75;58.40;100122.69;;;;-63
2020/10/28 13:47:17;;;;;;;2.28;1.29;;;;;;;20.74;58.37;100118.77;;;;-64
2020/10/28 13:50:17;;;;;;;2.20;1.20;;;;;;;20.74;58.43;100117.39;;;;-64
2020/10/28 13:53:17;;;;;;;1.82;1.30;;;;;;;20.74;58.42;100112.83;;;;-64
2020/10/28 13:56:17;;;;;;;3.81;1.27;;;;;;;20.76;58.38;100112.41;;;;-62
2020/10/28 13:59:17;;;;;;;11.07;1.66;;;;;;;20.76;58.63;100111.27;;;;-58
2020/10/28 14:02:17;;;;;;;4.73;1.34;;;;;;;20.75;58.34;100113.40;;;;-59
2020/10/28 14:05:17;;;;;;;5.22;1.50;;;;;;;20.78;58.61;100120.31;;;;-58
2020/10/28 14:08:17;;;;;;;7.41;1.41;;;;;;;20.79;58.83;100117.36;;;;-60
2020/10/28 14:11:17;;;;;;;6.59;1.50;;;;;;;20.81;58.80;100116.05;;;;-59
2020/10/28 14:14:17;;;;;;;2.34;1.21;;;;;;;20.81;58.66;100107.16;;;;-63
2020/10/28 14:17:17;;;;;;;4.40;1.37;;;;;;;20.83;58.90;100109.11;;;;-62
2020/10/28 14:20:17;;;;;;;5.51;1.37;;;;;;;20.84;58.70;100108.14;;;;-62
2020/10/28 14:23:17;;;;;;;8.81;1.49;;;;;;;20.85;58.98;100102.43;;;;-57
2020/10/28 14:26:17;;;;;;;4.49;1.30;;;;;;;20.85;59.12;100114.47;;;;-53
2020/10/28 14:29:17;;;;;;;5.61;1.46;;;;;;;20.86;59.06;100115.47;;;;-53
2020/10/28 14:32:17;;;;;;;4.61;1.36;;;;;;;20.86;59.03;100130.94;;;;-52
2020/10/28 14:35:17;;;;;;;2.91;1.20;;;;;;;20.87;58.90;100135.81;;;;-53
2020/10/28 14:38:17;;;;;;;3.33;1.31;;;;;;;20.88;58.90;100139.48;;;;-51
2020/10/28 14:41:17;;;;;;;2.40;1.30;;;;;;;20.89;58.93;100154.38;;;;-57
2020/10/28 14:44:17;;;;;;;6.08;1.39;;;;;;;20.89;58.87;100146.23;;;;-55
2020/10/28 14:47:17;;;;;;;3.49;1.40;;;;;;;20.91;58.86;100148.27;;;;-54
2020/10/28 14:50:17;;;;;;;3.37;1.18;;;;;;;20.91;58.91;100150.20;;;;-53
2020/10/28 14:53:17;;;;;;;3.20;1.21;;;;;;;20.92;58.75;100157.04;;;;-58
2020/10/28 14:56:17;;;;;;;3.57;1.21;;;;;;;20.93;58.66;100163.89;;;;-52
2020/10/28 14:59:17;;;;;;;2.75;1.25;;;;;;;20.93;58.77;100162.33;;;;-50
2020/10/28 15:02:17;;;;;;;2.67;1.30;;;;;;;20.95;58.89;100159.48;;;;-60
2020/10/28 15:05:17;;;;;;;5.81;1.21;;;;;;;20.94;58.77;100162.02;;;;-60
2020/10/28 15:08:17;;;;;;;1.67;1.21;;;;;;;20.94;58.61;100169.68;;;;-59
2020/10/28 15:11:17;;;;;;;1.91;1.29;;;;;;;20.93;58.63;100175.70;;;;-59
2020/10/28 15:14:17;;;;;;;2.20;1.21;;;;;;;20.92;58.59;100178.97;;;;-59
2020/10/28 15:17:17;;;;;;;1.94;1.30;;;;;;;20.92;58.66;100182.31;;;;-60
2020/10/28 15:20:17;;;;;;;2.61;1.25;;;;;;;20.92;58.64;100179.87;;;;-60
2020/10/28 15:23:17;;;;;;;3.44;1.38;;;;;;;20.92;58.67;100180.01;;;;-59
2020/10/28 15:26:17;;;;;;;3.77;1.27;;;;;;;20.91;58.33;100180.34;;;;-59
2020/10/28 15:29:17;;;;;;;3.38;1.34;;;;;;;20.90;58.50;100183.37;;;;-64
2020/10/28 15:32:17;;;;;;;2.54;1.30;;;;;;;20.90;58.41;100187.86;;;;-63
2020/10/28 15:35:17;;;;;;;2.99;1.14;;;;;;;20.89;58.50;100187.11;;;;-63
2020/10/28 15:38:17;;;;;;;2.64;1.19;;;;;;;20.88;58.54;100195.20;;;;-64
2020/10/28 15:41:17;;;;;;;1.45;1.21;;;;;;;20.87;58.57;100192.41;;;;-64
2020/10/28 15:44:17;;;;;;;1.77;1.17;;;;;;;20.85;58.59;100194.53;;;;-60
2020/10/28 15:47:17;;;;;;;2.57;1.00;;;;;;;20.85;58.58;100192.98;;;;-63
2020/10/28 15:50:17;;;;;;;2.01;1.11;;;;;;;20.85;58.61;100196.58;;;;-59
2020/10/28 15:53:17;;;;;;;3.09;1.27;;;;;;;20.83;58.62;100196.91;;;;-64
2020/10/28 15:56:17;;;;;;;1.22;1.13;;;;;;;20.82;58.60;100194.88;;;;-60
2020/10/28 15:59:17;;;;;;;2.05;1.21;;;;;;;20.81;58.62;100189.02;;;;-59
2020/10/28 16:02:17;;;;;;;2.19;1.11;;;;;;;20.79;58.59;100187.33;;;;-59
2020/10/28 16:05:17;;;;;;;2.11;1.21;;;;;;;20.78;58.60;100189.84;;;;-59
2020/10/28 16:08:17;;;;;;;2.11;1.18;;;;;;;20.77;58.59;100191.57;;;;-59
2020/10/28 16:11:17;;;;;;;1.25;1.02;;;;;;;20.77;58.66;100197.50;;;;-59
2020/10/28 16:14:17;;;;;;;1.08;0.95;;;;;;;20.75;58.63;100198.18;;;;-59
2020/10/28 16:17:17;;;;;;;1.92;1.11;;;;;;;20.73;58.70;100195.00;;;;-60
2020/10/28 16:20:17;;;;;;;1.29;1.10;;;;;;;20.72;58.66;100193.03;;;;-59
2020/10/28 16:23:17;;;;;;;1.19;1.07;;;;;;;20.71;58.68;100192.00;;;;-60
2020/10/28 16:26:17;;;;;;;1.00;0.99;;;;;;;20.69;58.64;100189.72;;;;-59
2020/10/28 16:29:17;;;;;;;1.19;1.07;;;;;;;20.68;58.72;100190.61;;;;-60
2020/10/28 16:32:17;;;;;;;3.23;1.19;;;;;;;20.67;58.71;100195.77;;;;-59
2020/10/28 16:35:17;;;;;;;1.24;1.10;;;;;;;20.66;58.71;100200.23;;;;-59
2020/10/28 16:38:17;;;;;;;2.88;1.10;;;;;;;20.64;58.73;100202.50;;;;-59
2020/10/28 16:41:17;;;;;;;1.36;1.10;;;;;;;20.63;58.77;100201.14;;;;-59
2020/10/28 16:44:17;;;;;;;1.53;1.05;;;;;;;20.61;58.76;100201.47;;;;-63
2020/10/28 16:47:17;;;;;;;1.83;1.00;;;;;;;20.60;58.80;100207.89;;;;-63
2020/10/28 16:50:17;;;;;;;1.14;1.04;;;;;;;20.59;58.79;100209.45;;;;-60
2020/10/28 16:53:17;;;;;;;1.83;1.10;;;;;;;20.57;58.75;100208.53;;;;-63
2020/10/28 16:56:17;;;;;;;1.43;1.09;;;;;;;20.55;58.79;100202.67;;;;-60
2020/10/28 16:59:17;;;;;;;4.12;1.27;;;;;;;20.55;58.50;100204.23;;;;-62
2020/10/28 17:02:17;;;;;;;5.35;1.20;;;;;;;20.54;58.58;100205.35;;;;-59
2020/10/28 17:05:17;;;;;;;1.89;1.14;;;;;;;20.52;58.71;100213.33;;;;-64